sensor_id;sensor_type;location;lat;lon;timestamp;P1;durP1;ratioP1;P2;durP2;ratioP2
25559;SDS011;13450;49.374;8.584;2022-08-21T00:01:48;4.18;;;1.95;;
25559;SDS011;13450;49.374;8.584;2022-08-21T00:04:13;4.07;;;1.73;;
25559;SDS011;13450;49.374;8.584;2022-08-21T00:06:39;5.35;;;2.03;;
25559;SDS011;13450;49.374;8.584;2022-08-21T00:09:05;6.03;;;1.85;;
25559;SDS011;13450;49.374;8.584;2022-08-21T00:11:36;3.43;;;1.50;;
25559;SDS011;13450;49.374;8.584;2022-08-21T00:14:06;4.07;;;2.22;;
25559;SDS011;13450;49.374;8.584;2022-08-21T00:16:33;3.17;;;1.63;;
25559;SDS011;13450;49.374;8.584;2022-08-21T00:18:58;5.35;;;2.03;;
25559;SDS011;13450;49.374;8.584;2022-08-21T00:21:24;4.15;;;1.83;;
25559;SDS011;13450;49.374;8.584;2022-08-21T00:23:50;3.67;;;1.70;;
25559;SDS011;13450;49.374;8.584;2022-08-21T00:26:15;4.20;;;2.15;;
25559;SDS011;13450;49.374;8.584;2022-08-21T00:28:41;6.28;;;1.90;;
25559;SDS011;13450;49.374;8.584;2022-08-21T00:31:06;6.00;;;1.92;;
25559;SDS011;13450;49.374;8.584;2022-08-21T00:33:33;3.55;;;1.80;;
25559;SDS011;13450;49.374;8.584;2022-08-21T00:35:59;5.18;;;1.98;;
25559;SDS011;13450;49.374;8.584;2022-08-21T00:38:25;4.53;;;2.08;;
25559;SDS011;13450;49.374;8.584;2022-08-21T00:40:52;4.72;;;2.10;;
25559;SDS011;13450;49.374;8.584;2022-08-21T00:43:21;5.75;;;2.40;;
25559;SDS011;13450;49.374;8.584;2022-08-21T00:45:52;4.55;;;2.03;;
25559;SDS011;13450;49.374;8.584;2022-08-21T00:48:18;5.15;;;2.10;;
25559;SDS011;13450;49.374;8.584;2022-08-21T00:50:46;4.22;;;1.83;;
25559;SDS011;13450;49.374;8.584;2022-08-21T00:53:20;4.20;;;1.98;;
25559;SDS011;13450;49.374;8.584;2022-08-21T00:55:47;5.10;;;2.10;;
25559;SDS011;13450;49.374;8.584;2022-08-21T00:58:13;4.63;;;1.90;;
25559;SDS011;13450;49.374;8.584;2022-08-21T01:00:41;4.32;;;1.92;;
25559;SDS011;13450;49.374;8.584;2022-08-21T01:03:10;3.65;;;1.70;;
25559;SDS011;13450;49.374;8.584;2022-08-21T01:05:38;4.88;;;2.00;;
25559;SDS011;13450;49.374;8.584;2022-08-21T01:08:05;4.25;;;1.70;;
25559;SDS011;13450;49.374;8.584;2022-08-21T01:10:34;5.88;;;2.05;;
25559;SDS011;13450;49.374;8.584;2022-08-21T01:13:00;3.57;;;1.70;;
25559;SDS011;13450;49.374;8.584;2022-08-21T01:15:28;4.28;;;1.85;;
25559;SDS011;13450;49.374;8.584;2022-08-21T01:17:56;3.60;;;1.70;;
25559;SDS011;13450;49.374;8.584;2022-08-21T01:20:22;4.47;;;2.08;;
25559;SDS011;13450;49.374;8.584;2022-08-21T01:22:47;5.72;;;1.98;;
25559;SDS011;13450;49.374;8.584;2022-08-21T01:25:17;4.45;;;2.00;;
25559;SDS011;13450;49.374;8.584;2022-08-21T01:27:45;4.03;;;1.75;;
25559;SDS011;13450;49.374;8.584;2022-08-21T01:32:39;4.60;;;2.17;;
25559;SDS011;13450;49.374;8.584;2022-08-21T01:35:05;5.38;;;2.38;;
25559;SDS011;13450;49.374;8.584;2022-08-21T01:37:31;5.47;;;2.10;;
25559;SDS011;13450;49.374;8.584;2022-08-21T01:39:57;3.60;;;1.83;;
25559;SDS011;13450;49.374;8.584;2022-08-21T01:42:22;3.92;;;1.88;;
25559;SDS011;13450;49.374;8.584;2022-08-21T01:44:48;3.85;;;2.05;;
25559;SDS011;13450;49.374;8.584;2022-08-21T01:47:13;5.70;;;1.90;;
25559;SDS011;13450;49.374;8.584;2022-08-21T01:49:41;4.60;;;2.30;;
25559;SDS011;13450;49.374;8.584;2022-08-21T01:52:07;6.63;;;2.40;;
25559;SDS011;13450;49.374;8.584;2022-08-21T01:54:33;5.50;;;2.22;;
25559;SDS011;13450;49.374;8.584;2022-08-21T01:56:59;5.15;;;1.92;;
25559;SDS011;13450;49.374;8.584;2022-08-21T01:59:25;5.45;;;1.92;;
25559;SDS011;13450;49.374;8.584;2022-08-21T02:01:51;5.28;;;2.42;;
25559;SDS011;13450;49.374;8.584;2022-08-21T02:04:19;4.32;;;2.03;;
25559;SDS011;13450;49.374;8.584;2022-08-21T02:06:45;4.95;;;2.45;;
25559;SDS011;13450;49.374;8.584;2022-08-21T02:09:11;5.55;;;2.35;;
25559;SDS011;13450;49.374;8.584;2022-08-21T02:11:37;4.38;;;2.20;;
25559;SDS011;13450;49.374;8.584;2022-08-21T02:14:06;4.53;;;2.27;;
25559;SDS011;13450;49.374;8.584;2022-08-21T02:16:36;4.45;;;2.15;;
25559;SDS011;13450;49.374;8.584;2022-08-21T02:19:03;5.10;;;2.50;;
25559;SDS011;13450;49.374;8.584;2022-08-21T02:21:29;4.60;;;2.40;;
25559;SDS011;13450;49.374;8.584;2022-08-21T02:23:54;4.35;;;1.90;;
25559;SDS011;13450;49.374;8.584;2022-08-21T02:26:19;4.30;;;2.17;;
25559;SDS011;13450;49.374;8.584;2022-08-21T02:28:47;5.57;;;2.30;;
25559;SDS011;13450;49.374;8.584;2022-08-21T02:31:13;5.28;;;2.20;;
25559;SDS011;13450;49.374;8.584;2022-08-21T02:33:41;5.25;;;2.38;;
25559;SDS011;13450;49.374;8.584;2022-08-21T02:36:07;5.22;;;2.53;;
25559;SDS011;13450;49.374;8.584;2022-08-21T02:38:34;3.50;;;1.88;;
25559;SDS011;13450;49.374;8.584;2022-08-21T02:41:03;5.30;;;2.38;;
25559;SDS011;13450;49.374;8.584;2022-08-21T02:43:30;4.97;;;2.10;;
25559;SDS011;13450;49.374;8.584;2022-08-21T02:45:57;4.63;;;2.20;;
25559;SDS011;13450;49.374;8.584;2022-08-21T02:48:26;4.05;;;1.98;;
25559;SDS011;13450;49.374;8.584;2022-08-21T02:50:55;4.43;;;2.10;;
25559;SDS011;13450;49.374;8.584;2022-08-21T02:55:51;4.60;;;2.03;;
25559;SDS011;13450;49.374;8.584;2022-08-21T02:58:21;4.63;;;2.00;;
25559;SDS011;13450;49.374;8.584;2022-08-21T03:00:54;4.82;;;1.80;;
25559;SDS011;13450;49.374;8.584;2022-08-21T03:03:19;3.90;;;1.98;;
25559;SDS011;13450;49.374;8.584;2022-08-21T03:05:47;4.82;;;2.08;;
25559;SDS011;13450;49.374;8.584;2022-08-21T03:08:13;4.07;;;1.70;;
25559;SDS011;13450;49.374;8.584;2022-08-21T03:10:45;4.85;;;2.30;;
25559;SDS011;13450;49.374;8.584;2022-08-21T03:13:13;6.05;;;2.40;;
25559;SDS011;13450;49.374;8.584;2022-08-21T03:15:40;5.47;;;2.40;;
25559;SDS011;13450;49.374;8.584;2022-08-21T03:18:06;6.05;;;2.40;;
25559;SDS011;13450;49.374;8.584;2022-08-21T03:20:32;5.10;;;2.25;;
25559;SDS011;13450;49.374;8.584;2022-08-21T03:23:00;6.47;;;2.28;;
25559;SDS011;13450;49.374;8.584;2022-08-21T03:25:28;6.20;;;2.53;;
25559;SDS011;13450;49.374;8.584;2022-08-21T03:27:56;7.32;;;2.30;;
25559;SDS011;13450;49.374;8.584;2022-08-21T03:30:22;4.78;;;2.15;;
25559;SDS011;13450;49.374;8.584;2022-08-21T03:32:47;6.15;;;2.03;;
25559;SDS011;13450;49.374;8.584;2022-08-21T03:35:13;4.88;;;2.15;;
25559;SDS011;13450;49.374;8.584;2022-08-21T03:37:39;4.22;;;1.92;;
25559;SDS011;13450;49.374;8.584;2022-08-21T03:40:07;6.22;;;2.00;;
25559;SDS011;13450;49.374;8.584;2022-08-21T03:42:34;7.65;;;2.10;;
25559;SDS011;13450;49.374;8.584;2022-08-21T03:44:59;5.10;;;2.00;;
25559;SDS011;13450;49.374;8.584;2022-08-21T03:47:25;4.40;;;2.03;;
25559;SDS011;13450;49.374;8.584;2022-08-21T03:49:52;5.53;;;2.63;;
25559;SDS011;13450;49.374;8.584;2022-08-21T03:52:19;5.40;;;2.30;;
25559;SDS011;13450;49.374;8.584;2022-08-21T03:54:45;4.05;;;2.10;;
25559;SDS011;13450;49.374;8.584;2022-08-21T03:57:12;5.55;;;2.10;;
25559;SDS011;13450;49.374;8.584;2022-08-21T03:59:38;7.25;;;2.50;;
25559;SDS011;13450;49.374;8.584;2022-08-21T04:02:06;5.53;;;2.00;;
25559;SDS011;13450;49.374;8.584;2022-08-21T04:04:32;6.22;;;2.45;;
25559;SDS011;13450;49.374;8.584;2022-08-21T04:06:58;4.93;;;2.08;;
25559;SDS011;13450;49.374;8.584;2022-08-21T04:09:27;4.63;;;2.40;;
25559;SDS011;13450;49.374;8.584;2022-08-21T04:11:55;4.25;;;2.03;;
25559;SDS011;13450;49.374;8.584;2022-08-21T04:14:21;7.63;;;2.47;;
25559;SDS011;13450;49.374;8.584;2022-08-21T04:16:47;4.28;;;2.25;;
25559;SDS011;13450;49.374;8.584;2022-08-21T04:19:12;4.50;;;2.22;;
25559;SDS011;13450;49.374;8.584;2022-08-21T04:21:42;7.43;;;2.25;;
25559;SDS011;13450;49.374;8.584;2022-08-21T04:24:08;5.63;;;2.30;;
25559;SDS011;13450;49.374;8.584;2022-08-21T04:26:37;4.93;;;2.63;;
25559;SDS011;13450;49.374;8.584;2022-08-21T04:29:04;4.50;;;2.22;;
25559;SDS011;13450;49.374;8.584;2022-08-21T04:31:32;4.43;;;2.22;;
25559;SDS011;13450;49.374;8.584;2022-08-21T04:33:58;5.43;;;2.50;;
25559;SDS011;13450;49.374;8.584;2022-08-21T04:36:24;4.57;;;2.30;;
25559;SDS011;13450;49.374;8.584;2022-08-21T04:38:49;4.68;;;2.20;;
25559;SDS011;13450;49.374;8.584;2022-08-21T04:41:14;4.90;;;2.08;;
25559;SDS011;13450;49.374;8.584;2022-08-21T04:43:40;5.70;;;2.10;;
25559;SDS011;13450;49.374;8.584;2022-08-21T04:46:06;4.43;;;2.25;;
25559;SDS011;13450;49.374;8.584;2022-08-21T04:48:33;6.60;;;2.30;;
25559;SDS011;13450;49.374;8.584;2022-08-21T04:53:34;5.80;;;2.47;;
25559;SDS011;13450;49.374;8.584;2022-08-21T04:56:08;6.43;;;2.28;;
25559;SDS011;13450;49.374;8.584;2022-08-21T04:58:46;4.05;;;2.20;;
25559;SDS011;13450;49.374;8.584;2022-08-21T05:01:14;3.97;;;1.92;;
25559;SDS011;13450;49.374;8.584;2022-08-21T05:03:43;7.57;;;2.40;;
25559;SDS011;13450;49.374;8.584;2022-08-21T05:06:12;3.83;;;2.23;;
25559;SDS011;13450;49.374;8.584;2022-08-21T05:08:38;5.63;;;2.10;;
25559;SDS011;13450;49.374;8.584;2022-08-21T05:11:06;5.15;;;2.28;;
25559;SDS011;13450;49.374;8.584;2022-08-21T05:13:31;5.22;;;2.40;;
25559;SDS011;13450;49.374;8.584;2022-08-21T05:15:57;4.55;;;2.05;;
25559;SDS011;13450;49.374;8.584;2022-08-21T05:18:23;3.38;;;1.70;;
25559;SDS011;13450;49.374;8.584;2022-08-21T05:20:55;6.32;;;2.28;;
25559;SDS011;13450;49.374;8.584;2022-08-21T05:23:23;4.50;;;2.08;;
25559;SDS011;13450;49.374;8.584;2022-08-21T05:25:50;5.00;;;2.13;;
25559;SDS011;13450;49.374;8.584;2022-08-21T05:28:20;5.10;;;1.80;;
25559;SDS011;13450;49.374;8.584;2022-08-21T05:30:45;6.72;;;2.13;;
25559;SDS011;13450;49.374;8.584;2022-08-21T05:33:13;5.45;;;2.25;;
25559;SDS011;13450;49.374;8.584;2022-08-21T05:35:39;6.38;;;2.55;;
25559;SDS011;13450;49.374;8.584;2022-08-21T05:38:05;4.90;;;2.38;;
25559;SDS011;13450;49.374;8.584;2022-08-21T05:40:33;4.25;;;2.20;;
25559;SDS011;13450;49.374;8.584;2022-08-21T05:42:58;5.90;;;2.15;;
25559;SDS011;13450;49.374;8.584;2022-08-21T05:45:31;5.05;;;2.30;;
25559;SDS011;13450;49.374;8.584;2022-08-21T05:47:57;7.30;;;2.28;;
25559;SDS011;13450;49.374;8.584;2022-08-21T05:50:23;4.10;;;2.20;;
25559;SDS011;13450;49.374;8.584;2022-08-21T05:52:48;7.70;;;2.42;;
25559;SDS011;13450;49.374;8.584;2022-08-21T05:55:16;4.97;;;2.40;;
25559;SDS011;13450;49.374;8.584;2022-08-21T05:57:42;4.05;;;2.20;;
25559;SDS011;13450;49.374;8.584;2022-08-21T06:00:07;9.65;;;2.78;;
25559;SDS011;13450;49.374;8.584;2022-08-21T06:02:35;4.22;;;2.10;;
25559;SDS011;13450;49.374;8.584;2022-08-21T06:05:00;5.45;;;2.38;;
25559;SDS011;13450;49.374;8.584;2022-08-21T06:07:26;3.75;;;1.90;;
25559;SDS011;13450;49.374;8.584;2022-08-21T06:09:54;6.35;;;2.40;;
25559;SDS011;13450;49.374;8.584;2022-08-21T06:12:19;6.13;;;2.20;;
25559;SDS011;13450;49.374;8.584;2022-08-21T06:14:44;4.85;;;2.25;;
25559;SDS011;13450;49.374;8.584;2022-08-21T06:17:10;5.10;;;1.88;;
25559;SDS011;13450;49.374;8.584;2022-08-21T06:19:37;4.75;;;2.08;;
25559;SDS011;13450;49.374;8.584;2022-08-21T06:22:03;5.28;;;2.22;;
25559;SDS011;13450;49.374;8.584;2022-08-21T06:24:29;4.78;;;2.00;;
25559;SDS011;13450;49.374;8.584;2022-08-21T06:26:55;5.30;;;2.22;;
25559;SDS011;13450;49.374;8.584;2022-08-21T06:29:21;5.38;;;2.10;;
25559;SDS011;13450;49.374;8.584;2022-08-21T06:31:48;5.65;;;2.28;;
25559;SDS011;13450;49.374;8.584;2022-08-21T06:34:14;6.07;;;2.60;;
25559;SDS011;13450;49.374;8.584;2022-08-21T06:36:40;4.07;;;2.22;;
25559;SDS011;13450;49.374;8.584;2022-08-21T06:39:08;5.15;;;2.25;;
25559;SDS011;13450;49.374;8.584;2022-08-21T06:41:33;6.15;;;2.13;;
25559;SDS011;13450;49.374;8.584;2022-08-21T06:43:59;5.30;;;2.60;;
25559;SDS011;13450;49.374;8.584;2022-08-21T06:46:25;5.80;;;1.70;;
25559;SDS011;13450;49.374;8.584;2022-08-21T06:48:53;5.82;;;2.40;;
25559;SDS011;13450;49.374;8.584;2022-08-21T06:51:18;5.75;;;2.47;;
25559;SDS011;13450;49.374;8.584;2022-08-21T06:53:46;4.30;;;2.13;;
25559;SDS011;13450;49.374;8.584;2022-08-21T06:56:16;7.00;;;2.10;;
25559;SDS011;13450;49.374;8.584;2022-08-21T06:58:42;7.45;;;2.10;;
25559;SDS011;13450;49.374;8.584;2022-08-21T07:01:09;5.45;;;2.15;;
25559;SDS011;13450;49.374;8.584;2022-08-21T07:03:38;6.30;;;2.33;;
25559;SDS011;13450;49.374;8.584;2022-08-21T07:06:06;6.03;;;2.10;;
25559;SDS011;13450;49.374;8.584;2022-08-21T07:08:34;5.68;;;2.13;;
25559;SDS011;13450;49.374;8.584;2022-08-21T07:11:01;6.85;;;2.40;;
25559;SDS011;13450;49.374;8.584;2022-08-21T07:13:40;5.68;;;2.47;;
25559;SDS011;13450;49.374;8.584;2022-08-21T07:16:06;5.75;;;1.70;;
25559;SDS011;13450;49.374;8.584;2022-08-21T07:18:31;5.25;;;2.25;;
25559;SDS011;13450;49.374;8.584;2022-08-21T07:20:56;6.38;;;2.38;;
25559;SDS011;13450;49.374;8.584;2022-08-21T07:23:23;6.65;;;2.08;;
25559;SDS011;13450;49.374;8.584;2022-08-21T07:25:52;4.50;;;1.95;;
25559;SDS011;13450;49.374;8.584;2022-08-21T07:28:18;5.30;;;2.20;;
25559;SDS011;13450;49.374;8.584;2022-08-21T07:30:44;7.13;;;2.50;;
25559;SDS011;13450;49.374;8.584;2022-08-21T07:33:10;5.97;;;2.13;;
25559;SDS011;13450;49.374;8.584;2022-08-21T07:35:36;4.65;;;2.03;;
25559;SDS011;13450;49.374;8.584;2022-08-21T07:38:01;5.43;;;2.53;;
25559;SDS011;13450;49.374;8.584;2022-08-21T07:40:27;7.32;;;2.42;;
25559;SDS011;13450;49.374;8.584;2022-08-21T07:42:52;6.72;;;2.15;;
25559;SDS011;13450;49.374;8.584;2022-08-21T07:45:21;6.50;;;2.00;;
25559;SDS011;13450;49.374;8.584;2022-08-21T07:47:49;6.30;;;1.95;;
25559;SDS011;13450;49.374;8.584;2022-08-21T07:50:18;5.68;;;1.80;;
25559;SDS011;13450;49.374;8.584;2022-08-21T07:52:44;4.60;;;2.30;;
25559;SDS011;13450;49.374;8.584;2022-08-21T07:55:11;7.32;;;2.10;;
25559;SDS011;13450;49.374;8.584;2022-08-21T07:57:38;7.70;;;2.22;;
25559;SDS011;13450;49.374;8.584;2022-08-21T08:00:05;5.93;;;1.80;;
25559;SDS011;13450;49.374;8.584;2022-08-21T08:02:34;5.32;;;2.20;;
25559;SDS011;13450;49.374;8.584;2022-08-21T08:05:03;6.63;;;2.15;;
25559;SDS011;13450;49.374;8.584;2022-08-21T08:07:32;6.82;;;2.00;;
25559;SDS011;13450;49.374;8.584;2022-08-21T08:10:00;5.50;;;1.95;;
25559;SDS011;13450;49.374;8.584;2022-08-21T08:12:26;7.72;;;2.55;;
25559;SDS011;13450;49.374;8.584;2022-08-21T08:14:57;5.40;;;2.30;;
25559;SDS011;13450;49.374;8.584;2022-08-21T08:17:24;7.03;;;2.25;;
25559;SDS011;13450;49.374;8.584;2022-08-21T08:19:50;5.35;;;2.20;;
25559;SDS011;13450;49.374;8.584;2022-08-21T08:22:17;6.53;;;2.22;;
25559;SDS011;13450;49.374;8.584;2022-08-21T08:24:45;7.90;;;2.58;;
25559;SDS011;13450;49.374;8.584;2022-08-21T08:27:11;8.10;;;2.65;;
25559;SDS011;13450;49.374;8.584;2022-08-21T08:29:37;5.50;;;2.10;;
25559;SDS011;13450;49.374;8.584;2022-08-21T08:32:03;7.88;;;2.10;;
25559;SDS011;13450;49.374;8.584;2022-08-21T08:34:30;7.07;;;2.53;;
25559;SDS011;13450;49.374;8.584;2022-08-21T08:36:55;5.45;;;2.50;;
25559;SDS011;13450;49.374;8.584;2022-08-21T08:39:23;6.87;;;2.43;;
25559;SDS011;13450;49.374;8.584;2022-08-21T08:41:48;8.02;;;2.58;;
25559;SDS011;13450;49.374;8.584;2022-08-21T08:44:16;5.35;;;2.60;;
25559;SDS011;13450;49.374;8.584;2022-08-21T08:46:45;6.63;;;2.60;;
25559;SDS011;13450;49.374;8.584;2022-08-21T08:49:14;5.15;;;2.35;;
25559;SDS011;13450;49.374;8.584;2022-08-21T08:51:52;7.65;;;2.47;;
25559;SDS011;13450;49.374;8.584;2022-08-21T08:56:56;7.38;;;2.92;;
25559;SDS011;13450;49.374;8.584;2022-08-21T08:59:25;7.00;;;2.55;;
25559;SDS011;13450;49.374;8.584;2022-08-21T09:01:53;10.45;;;2.53;;
25559;SDS011;13450;49.374;8.584;2022-08-21T09:04:20;5.82;;;2.40;;
25559;SDS011;13450;49.374;8.584;2022-08-21T09:06:55;7.18;;;2.50;;
25559;SDS011;13450;49.374;8.584;2022-08-21T09:23:43;5.32;;;2.45;;
25559;SDS011;13450;49.374;8.584;2022-08-21T09:26:12;6.13;;;2.47;;
25559;SDS011;13450;49.374;8.584;2022-08-21T09:28:40;6.00;;;2.75;;
25559;SDS011;13450;49.374;8.584;2022-08-21T09:31:08;5.00;;;2.17;;
25559;SDS011;13450;49.374;8.584;2022-08-21T09:33:41;5.07;;;1.90;;
25559;SDS011;13450;49.374;8.584;2022-08-21T09:36:06;6.68;;;2.38;;
25559;SDS011;13450;49.374;8.584;2022-08-21T09:38:34;5.53;;;2.10;;
25559;SDS011;13450;49.374;8.584;2022-08-21T09:41:07;3.90;;;2.00;;
25559;SDS011;13450;49.374;8.584;2022-08-21T09:43:35;5.72;;;2.20;;
25559;SDS011;13450;49.374;8.584;2022-08-21T09:46:12;4.28;;;1.70;;
25559;SDS011;13450;49.374;8.584;2022-08-21T09:48:50;4.82;;;1.90;;
25559;SDS011;13450;49.374;8.584;2022-08-21T09:51:30;6.57;;;1.75;;
25559;SDS011;13450;49.374;8.584;2022-08-21T09:56:51;5.93;;;1.90;;
25559;SDS011;13450;49.374;8.584;2022-08-21T09:59:40;4.90;;;1.73;;
25559;SDS011;13450;49.374;8.584;2022-08-21T10:04:52;6.00;;;1.77;;
25559;SDS011;13450;49.374;8.584;2022-08-21T10:07:30;5.32;;;1.52;;
25559;SDS011;13450;49.374;8.584;2022-08-21T10:10:19;6.80;;;1.70;;
25559;SDS011;13450;49.374;8.584;2022-08-21T10:13:01;5.35;;;1.75;;
25559;SDS011;13450;49.374;8.584;2022-08-21T10:21:14;4.90;;;1.63;;
25559;SDS011;13450;49.374;8.584;2022-08-21T10:35:09;4.15;;;1.55;;
25559;SDS011;13450;49.374;8.584;2022-08-21T10:43:35;4.93;;;1.75;;
25559;SDS011;13450;49.374;8.584;2022-08-21T10:46:26;5.47;;;1.65;;
25559;SDS011;13450;49.374;8.584;2022-08-21T10:49:12;5.70;;;2.25;;
25559;SDS011;13450;49.374;8.584;2022-08-21T10:54:22;5.72;;;1.83;;
25559;SDS011;13450;49.374;8.584;2022-08-21T10:56:59;8.23;;;1.95;;
25559;SDS011;13450;49.374;8.584;2022-08-21T10:59:38;4.13;;;1.40;;
25559;SDS011;13450;49.374;8.584;2022-08-21T11:07:51;3.65;;;1.48;;
25559;SDS011;13450;49.374;8.584;2022-08-21T11:10:21;5.10;;;1.50;;
25559;SDS011;13450;49.374;8.584;2022-08-21T11:12:54;6.38;;;1.70;;
25559;SDS011;13450;49.374;8.584;2022-08-21T11:18:41;4.65;;;1.55;;
25559;SDS011;13450;49.374;8.584;2022-08-21T11:21:28;4.47;;;1.40;;
25559;SDS011;13450;49.374;8.584;2022-08-21T11:26:41;3.58;;;1.30;;
25559;SDS011;13450;49.374;8.584;2022-08-21T11:29:14;5.65;;;1.63;;
25559;SDS011;13450;49.374;8.584;2022-08-21T11:31:57;6.68;;;1.55;;
25559;SDS011;13450;49.374;8.584;2022-08-21T11:40:02;4.40;;;1.40;;
25559;SDS011;13450;49.374;8.584;2022-08-21T11:45:21;4.20;;;1.50;;
25559;SDS011;13450;49.374;8.584;2022-08-21T11:50:33;3.05;;;1.27;;
25559;SDS011;13450;49.374;8.584;2022-08-21T11:55:51;3.20;;;1.27;;
25559;SDS011;13450;49.374;8.584;2022-08-21T11:58:41;4.20;;;1.52;;
25559;SDS011;13450;49.374;8.584;2022-08-21T12:01:15;4.00;;;1.50;;
25559;SDS011;13450;49.374;8.584;2022-08-21T12:04:31;5.82;;;1.60;;
25559;SDS011;13450;49.374;8.584;2022-08-21T12:06:53;6.60;;;1.80;;
25559;SDS011;13450;49.374;8.584;2022-08-21T12:12:00;4.07;;;1.40;;
25559;SDS011;13450;49.374;8.584;2022-08-21T12:14:36;3.25;;;1.30;;
25559;SDS011;13450;49.374;8.584;2022-08-21T12:17:06;4.05;;;1.40;;
25559;SDS011;13450;49.374;8.584;2022-08-21T12:19:33;5.38;;;1.52;;
25559;SDS011;13450;49.374;8.584;2022-08-21T12:24:32;3.95;;;1.58;;
25559;SDS011;13450;49.374;8.584;2022-08-21T12:29:48;3.83;;;1.48;;
25559;SDS011;13450;49.374;8.584;2022-08-21T12:34:41;2.93;;;1.30;;
25559;SDS011;13450;49.374;8.584;2022-08-21T12:39:46;4.75;;;1.48;;
25559;SDS011;13450;49.374;8.584;2022-08-21T12:42:18;4.40;;;1.52;;
25559;SDS011;13450;49.374;8.584;2022-08-21T12:44:51;4.13;;;1.30;;
25559;SDS011;13450;49.374;8.584;2022-08-21T12:49:52;6.05;;;1.30;;
25559;SDS011;13450;49.374;8.584;2022-08-21T12:52:29;4.55;;;1.60;;
25559;SDS011;13450;49.374;8.584;2022-08-21T12:54:57;3.15;;;1.40;;
25559;SDS011;13450;49.374;8.584;2022-08-21T12:57:27;4.35;;;1.40;;
25559;SDS011;13450;49.374;8.584;2022-08-21T13:00:00;6.15;;;1.30;;
25559;SDS011;13450;49.374;8.584;2022-08-21T13:02:32;4.28;;;1.40;;
25559;SDS011;13450;49.374;8.584;2022-08-21T13:05:05;5.45;;;1.40;;
25559;SDS011;13450;49.374;8.584;2022-08-21T13:07:34;3.95;;;1.42;;
25559;SDS011;13450;49.374;8.584;2022-08-21T13:12:48;3.78;;;1.30;;
25559;SDS011;13450;49.374;8.584;2022-08-21T13:15:14;3.58;;;1.30;;
25559;SDS011;13450;49.374;8.584;2022-08-21T13:17:47;4.05;;;1.25;;
25559;SDS011;13450;49.374;8.584;2022-08-21T13:20:26;3.60;;;1.40;;
25559;SDS011;13450;49.374;8.584;2022-08-21T13:22:54;3.28;;;1.20;;
25559;SDS011;13450;49.374;8.584;2022-08-21T13:25:20;4.82;;;1.58;;
25559;SDS011;13450;49.374;8.584;2022-08-21T13:28:10;4.32;;;1.35;;
25559;SDS011;13450;49.374;8.584;2022-08-21T13:30:46;4.97;;;1.42;;
25559;SDS011;13450;49.374;8.584;2022-08-21T13:33:15;3.55;;;1.30;;
25559;SDS011;13450;49.374;8.584;2022-08-21T13:35:46;3.25;;;1.38;;
25559;SDS011;13450;49.374;8.584;2022-08-21T13:38:25;4.05;;;1.40;;
25559;SDS011;13450;49.374;8.584;2022-08-21T13:41:05;2.53;;;1.30;;
25559;SDS011;13450;49.374;8.584;2022-08-21T13:43:36;3.10;;;1.20;;
25559;SDS011;13450;49.374;8.584;2022-08-21T13:46:02;5.85;;;1.40;;
25559;SDS011;13450;49.374;8.584;2022-08-21T13:48:34;4.53;;;1.48;;
25559;SDS011;13450;49.374;8.584;2022-08-21T13:51:00;3.60;;;1.40;;
25559;SDS011;13450;49.374;8.584;2022-08-21T13:55:54;3.17;;;1.33;;
25559;SDS011;13450;49.374;8.584;2022-08-21T13:58:31;4.85;;;1.40;;
25559;SDS011;13450;49.374;8.584;2022-08-21T14:01:15;3.63;;;1.30;;
25559;SDS011;13450;49.374;8.584;2022-08-21T14:03:48;5.07;;;1.48;;
25559;SDS011;13450;49.374;8.584;2022-08-21T14:06:20;3.55;;;1.35;;
25559;SDS011;13450;49.374;8.584;2022-08-21T14:08:54;2.78;;;1.13;;
25559;SDS011;13450;49.374;8.584;2022-08-21T14:11:24;2.78;;;1.48;;
25559;SDS011;13450;49.374;8.584;2022-08-21T14:13:55;3.95;;;1.50;;
25559;SDS011;13450;49.374;8.584;2022-08-21T14:16:26;2.35;;;1.20;;
25559;SDS011;13450;49.374;8.584;2022-08-21T14:21:35;3.88;;;1.52;;
25559;SDS011;13450;49.374;8.584;2022-08-21T14:24:29;2.95;;;1.30;;
25559;SDS011;13450;49.374;8.584;2022-08-21T14:29:27;2.97;;;1.23;;
25559;SDS011;13450;49.374;8.584;2022-08-21T14:31:56;4.15;;;1.42;;
25559;SDS011;13450;49.374;8.584;2022-08-21T14:34:24;4.28;;;1.35;;
25559;SDS011;13450;49.374;8.584;2022-08-21T14:36:52;3.72;;;1.50;;
25559;SDS011;13450;49.374;8.584;2022-08-21T14:39:17;3.33;;;1.50;;
25559;SDS011;13450;49.374;8.584;2022-08-21T14:41:43;5.30;;;1.60;;
25559;SDS011;13450;49.374;8.584;2022-08-21T14:44:14;4.38;;;1.38;;
25559;SDS011;13450;49.374;8.584;2022-08-21T14:46:41;4.00;;;1.60;;
25559;SDS011;13450;49.374;8.584;2022-08-21T14:49:07;5.15;;;1.40;;
25559;SDS011;13450;49.374;8.584;2022-08-21T14:51:32;5.10;;;1.85;;
25559;SDS011;13450;49.374;8.584;2022-08-21T14:53:58;4.20;;;1.30;;
25559;SDS011;13450;49.374;8.584;2022-08-21T14:56:26;4.05;;;1.33;;
25559;SDS011;13450;49.374;8.584;2022-08-21T14:58:52;4.40;;;1.48;;
25559;SDS011;13450;49.374;8.584;2022-08-21T15:01:19;3.78;;;1.63;;
25559;SDS011;13450;49.374;8.584;2022-08-21T15:03:47;3.50;;;1.30;;
25559;SDS011;13450;49.374;8.584;2022-08-21T15:06:16;3.17;;;1.00;;
25559;SDS011;13450;49.374;8.584;2022-08-21T15:08:42;3.10;;;1.20;;
25559;SDS011;13450;49.374;8.584;2022-08-21T15:11:08;5.30;;;1.38;;
25559;SDS011;13450;49.374;8.584;2022-08-21T15:13:37;8.68;;;3.55;;
25559;SDS011;13450;49.374;8.584;2022-08-21T15:16:03;3.40;;;1.40;;
25559;SDS011;13450;49.374;8.584;2022-08-21T15:18:29;4.22;;;1.60;;
25559;SDS011;13450;49.374;8.584;2022-08-21T15:20:57;4.45;;;1.27;;
25559;SDS011;13450;49.374;8.584;2022-08-21T15:25:48;3.10;;;1.47;;
25559;SDS011;13450;49.374;8.584;2022-08-21T15:28:15;4.20;;;1.45;;
25559;SDS011;13450;49.374;8.584;2022-08-21T15:33:09;4.40;;;1.55;;
25559;SDS011;13450;49.374;8.584;2022-08-21T15:35:36;4.78;;;1.60;;
25559;SDS011;13450;49.374;8.584;2022-08-21T15:38:02;4.53;;;1.40;;
25559;SDS011;13450;49.374;8.584;2022-08-21T15:40:28;4.88;;;1.55;;
25559;SDS011;13450;49.374;8.584;2022-08-21T15:42:56;3.42;;;1.30;;
25559;SDS011;13450;49.374;8.584;2022-08-21T15:45:24;4.57;;;1.58;;
25559;SDS011;13450;49.374;8.584;2022-08-21T15:47:51;3.97;;;1.38;;
25559;SDS011;13450;49.374;8.584;2022-08-21T15:50:19;3.80;;;1.30;;
25559;SDS011;13450;49.374;8.584;2022-08-21T15:52:46;3.10;;;1.20;;
25559;SDS011;13450;49.374;8.584;2022-08-21T15:55:11;3.97;;;1.25;;
25559;SDS011;13450;49.374;8.584;2022-08-21T15:57:38;6.30;;;1.77;;
25559;SDS011;13450;49.374;8.584;2022-08-21T16:00:14;2.92;;;1.20;;
25559;SDS011;13450;49.374;8.584;2022-08-21T16:02:46;6.22;;;1.52;;
25559;SDS011;13450;49.374;8.584;2022-08-21T16:05:14;3.72;;;1.40;;
25559;SDS011;13450;49.374;8.584;2022-08-21T16:10:07;3.10;;;1.48;;
25559;SDS011;13450;49.374;8.584;2022-08-21T16:12:34;3.92;;;1.50;;
25559;SDS011;13450;49.374;8.584;2022-08-21T16:15:04;4.70;;;1.50;;
25559;SDS011;13450;49.374;8.584;2022-08-21T16:17:33;4.00;;;1.63;;
25559;SDS011;13450;49.374;8.584;2022-08-21T16:20:03;5.10;;;1.60;;
25559;SDS011;13450;49.374;8.584;2022-08-21T16:22:30;4.10;;;1.40;;
25559;SDS011;13450;49.374;8.584;2022-08-21T16:25:00;4.97;;;1.65;;
25559;SDS011;13450;49.374;8.584;2022-08-21T16:27:25;4.60;;;1.67;;
25559;SDS011;13450;49.374;8.584;2022-08-21T16:29:50;6.05;;;1.42;;
25559;SDS011;13450;49.374;8.584;2022-08-21T16:32:18;4.70;;;1.52;;
25559;SDS011;13450;49.374;8.584;2022-08-21T16:34:46;4.20;;;1.45;;
25559;SDS011;13450;49.374;8.584;2022-08-21T16:37:13;4.20;;;1.33;;
25559;SDS011;13450;49.374;8.584;2022-08-21T16:39:39;3.80;;;1.30;;
25559;SDS011;13450;49.374;8.584;2022-08-21T16:42:05;4.03;;;1.30;;
25559;SDS011;13450;49.374;8.584;2022-08-21T16:44:31;3.22;;;1.35;;
25559;SDS011;13450;49.374;8.584;2022-08-21T16:46:59;5.10;;;1.60;;
25559;SDS011;13450;49.374;8.584;2022-08-21T16:49:25;3.42;;;1.48;;
25559;SDS011;13450;49.374;8.584;2022-08-21T16:51:50;4.00;;;1.25;;